sensor_id;sensor_type;location;lat;lon;timestamp;temperature;humidity
49413;DHT22;35493;50.276;9.372;2022-10-30T00:01:01;12.90;89.40
49413;DHT22;35493;50.276;9.372;2022-10-30T00:03:32;12.90;89.50
49413;DHT22;35493;50.276;9.372;2022-10-30T00:06:03;12.90;89.40
49413;DHT22;35493;50.276;9.372;2022-10-30T00:08:30;12.80;89.40
49413;DHT22;35493;50.276;9.372;2022-10-30T00:11:05;12.80;89.40
49413;DHT22;35493;50.276;9.372;2022-10-30T00:13:32;12.80;89.40
49413;DHT22;35493;50.276;9.372;2022-10-30T00:16:03;12.80;89.30
49413;DHT22;35493;50.276;9.372;2022-10-30T00:18:30;12.80;89.40
49413;DHT22;35493;50.276;9.372;2022-10-30T00:21:04;12.80;89.40
49413;DHT22;35493;50.276;9.372;2022-10-30T00:23:31;12.70;89.30
49413;DHT22;35493;50.276;9.372;2022-10-30T00:26:02;12.70;89.30
49413;DHT22;35493;50.276;9.372;2022-10-30T00:28:30;12.70;89.30
49413;DHT22;35493;50.276;9.372;2022-10-30T00:30:59;12.70;89.30
49413;DHT22;35493;50.276;9.372;2022-10-30T00:33:26;12.70;89.40
49413;DHT22;35493;50.276;9.372;2022-10-30T00:35:53;12.70;89.30
49413;DHT22;35493;50.276;9.372;2022-10-30T00:38:20;12.60;89.40
49413;DHT22;35493;50.276;9.372;2022-10-30T00:40:48;12.60;89.40
49413;DHT22;35493;50.276;9.372;2022-10-30T00:43:28;12.70;89.50
49413;DHT22;35493;50.276;9.372;2022-10-30T00:45:59;12.70;89.50
49413;DHT22;35493;50.276;9.372;2022-10-30T00:48:28;12.60;89.50
49413;DHT22;35493;50.276;9.372;2022-10-30T00:50:55;12.70;89.60
49413;DHT22;35493;50.276;9.372;2022-10-30T00:53:24;12.70;89.60
49413;DHT22;35493;50.276;9.372;2022-10-30T00:55:54;12.70;89.60
49413;DHT22;35493;50.276;9.372;2022-10-30T00:58:24;12.60;89.70
49413;DHT22;35493;50.276;9.372;2022-10-30T01:00:54;12.60;89.70
49413;DHT22;35493;50.276;9.372;2022-10-30T01:03:24;12.70;89.70
49413;DHT22;35493;50.276;9.372;2022-10-30T01:05:55;12.60;89.70
49413;DHT22;35493;50.276;9.372;2022-10-30T01:08:24;12.70;89.70
49413;DHT22;35493;50.276;9.372;2022-10-30T01:10:51;12.60;89.70
49413;DHT22;35493;50.276;9.372;2022-10-30T01:13:20;12.60;89.70
49413;DHT22;35493;50.276;9.372;2022-10-30T01:15:56;12.60;89.80
49413;DHT22;35493;50.276;9.372;2022-10-30T01:18:34;12.60;89.80
49413;DHT22;35493;50.276;9.372;2022-10-30T01:21:30;12.60;89.80
49413;DHT22;35493;50.276;9.372;2022-10-30T01:24:12;12.60;89.80
49413;DHT22;35493;50.276;9.372;2022-10-30T01:26:48;12.60;89.70
49413;DHT22;35493;50.276;9.372;2022-10-30T01:29:29;12.50;89.70
49413;DHT22;35493;50.276;9.372;2022-10-30T01:32:13;12.50;89.80
49413;DHT22;35493;50.276;9.372;2022-10-30T01:34:50;12.50;89.70
49413;DHT22;35493;50.276;9.372;2022-10-30T01:37:29;12.40;89.70
49413;DHT22;35493;50.276;9.372;2022-10-30T01:40:03;12.40;89.70
49413;DHT22;35493;50.276;9.372;2022-10-30T01:42:45;12.40;89.70
49413;DHT22;35493;50.276;9.372;2022-10-30T01:45:20;12.40;89.70
49413;DHT22;35493;50.276;9.372;2022-10-30T01:48:08;12.40;89.70
49413;DHT22;35493;50.276;9.372;2022-10-30T01:50:50;12.40;89.70
49413;DHT22;35493;50.276;9.372;2022-10-30T01:53:30;12.40;89.70
49413;DHT22;35493;50.276;9.372;2022-10-30T01:56:14;12.40;89.70
49413;DHT22;35493;50.276;9.372;2022-10-30T01:58:49;12.30;89.60
49413;DHT22;35493;50.276;9.372;2022-10-30T02:01:17;12.30;89.60
49413;DHT22;35493;50.276;9.372;2022-10-30T02:03:45;12.40;89.60
49413;DHT22;35493;50.276;9.372;2022-10-30T02:06:14;12.30;89.70
49413;DHT22;35493;50.276;9.372;2022-10-30T02:08:42;12.30;89.70
49413;DHT22;35493;50.276;9.372;2022-10-30T02:11:09;12.30;89.70
49413;DHT22;35493;50.276;9.372;2022-10-30T02:13:40;12.30;89.70
49413;DHT22;35493;50.276;9.372;2022-10-30T02:16:08;12.30;89.70
49413;DHT22;35493;50.276;9.372;2022-10-30T02:18:35;12.30;89.70
49413;DHT22;35493;50.276;9.372;2022-10-30T02:21:04;12.30;89.60
49413;DHT22;35493;50.276;9.372;2022-10-30T02:23:33;12.20;89.60
49413;DHT22;35493;50.276;9.372;2022-10-30T02:26:01;12.20;89.70
49413;DHT22;35493;50.276;9.372;2022-10-30T02:28:28;12.20;89.80
49413;DHT22;35493;50.276;9.372;2022-10-30T02:30:55;12.20;89.90
49413;DHT22;35493;50.276;9.372;2022-10-30T02:33:23;12.20;89.90
49413;DHT22;35493;50.276;9.372;2022-10-30T02:35:50;12.20;90.00
49413;DHT22;35493;50.276;9.372;2022-10-30T02:38:19;12.20;89.90
49413;DHT22;35493;50.276;9.372;2022-10-30T02:40:48;12.20;89.90
49413;DHT22;35493;50.276;9.372;2022-10-30T02:43:15;12.20;89.90
49413;DHT22;35493;50.276;9.372;2022-10-30T02:45:42;12.20;89.90
49413;DHT22;35493;50.276;9.372;2022-10-30T02:48:09;12.20;89.90
49413;DHT22;35493;50.276;9.372;2022-10-30T02:50:37;12.20;89.90
49413;DHT22;35493;50.276;9.372;2022-10-30T02:53:03;12.20;89.90
49413;DHT22;35493;50.276;9.372;2022-10-30T02:55:32;12.20;90.00
49413;DHT22;35493;50.276;9.372;2022-10-30T02:57:59;12.20;90.00
49413;DHT22;35493;50.276;9.372;2022-10-30T03:00:30;12.20;90.00
49413;DHT22;35493;50.276;9.372;2022-10-30T03:02:57;12.20;90.00
49413;DHT22;35493;50.276;9.372;2022-10-30T03:05:24;12.20;90.10
49413;DHT22;35493;50.276;9.372;2022-10-30T03:07:53;12.20;90.10
49413;DHT22;35493;50.276;9.372;2022-10-30T03:10:21;12.20;90.10
49413;DHT22;35493;50.276;9.372;2022-10-30T03:12:49;12.20;90.10
49413;DHT22;35493;50.276;9.372;2022-10-30T03:15:17;12.10;90.10
49413;DHT22;35493;50.276;9.372;2022-10-30T03:17:44;12.10;90.20
49413;DHT22;35493;50.276;9.372;2022-10-30T03:20:11;12.10;90.30
49413;DHT22;35493;50.276;9.372;2022-10-30T03:22:38;12.10;90.30
49413;DHT22;35493;50.276;9.372;2022-10-30T03:25:08;12.10;90.40
49413;DHT22;35493;50.276;9.372;2022-10-30T03:27:35;12.00;90.30
49413;DHT22;35493;50.276;9.372;2022-10-30T03:30:04;12.00;90.30
49413;DHT22;35493;50.276;9.372;2022-10-30T03:32:31;12.00;90.20
49413;DHT22;35493;50.276;9.372;2022-10-30T03:34:59;12.00;90.20
49413;DHT22;35493;50.276;9.372;2022-10-30T03:37:27;12.00;90.10
49413;DHT22;35493;50.276;9.372;2022-10-30T03:39:54;11.90;90.00
49413;DHT22;35493;50.276;9.372;2022-10-30T03:42:22;11.90;90.00
49413;DHT22;35493;50.276;9.372;2022-10-30T03:44:50;11.90;90.00
49413;DHT22;35493;50.276;9.372;2022-10-30T03:47:18;11.90;89.90
49413;DHT22;35493;50.276;9.372;2022-10-30T03:49:45;11.90;89.80
49413;DHT22;35493;50.276;9.372;2022-10-30T03:52:17;11.80;89.90
49413;DHT22;35493;50.276;9.372;2022-10-30T03:54:44;11.80;89.80
49413;DHT22;35493;50.276;9.372;2022-10-30T03:57:13;11.90;89.80
49413;DHT22;35493;50.276;9.372;2022-10-30T03:59:54;11.90;89.80
49413;DHT22;35493;50.276;9.372;2022-10-30T04:02:45;11.90;89.80
49413;DHT22;35493;50.276;9.372;2022-10-30T04:05:13;11.90;89.80
49413;DHT22;35493;50.276;9.372;2022-10-30T04:07:40;11.80;89.90
49413;DHT22;35493;50.276;9.372;2022-10-30T04:10:08;11.80;89.90
49413;DHT22;35493;50.276;9.372;2022-10-30T04:12:36;11.70;90.00
49413;DHT22;35493;50.276;9.372;2022-10-30T04:15:04;11.70;90.00
49413;DHT22;35493;50.276;9.372;2022-10-30T04:17:31;11.70;90.00
49413;DHT22;35493;50.276;9.372;2022-10-30T04:20:05;11.70;90.00
49413;DHT22;35493;50.276;9.372;2022-10-30T04:22:32;11.70;89.90
49413;DHT22;35493;50.276;9.372;2022-10-30T04:24:59;11.70;89.90
49413;DHT22;35493;50.276;9.372;2022-10-30T04:27:30;11.70;89.80
49413;DHT22;35493;50.276;9.372;2022-10-30T04:29:58;11.70;89.70
49413;DHT22;35493;50.276;9.372;2022-10-30T04:32:25;11.70;89.70
49413;DHT22;35493;50.276;9.372;2022-10-30T04:34:54;11.70;89.70
49413;DHT22;35493;50.276;9.372;2022-10-30T04:37:22;11.70;89.70
49413;DHT22;35493;50.276;9.372;2022-10-30T04:39:49;11.70;89.70
49413;DHT22;35493;50.276;9.372;2022-10-30T04:42:23;11.70;89.60
49413;DHT22;35493;50.276;9.372;2022-10-30T04:44:57;11.70;89.70
49413;DHT22;35493;50.276;9.372;2022-10-30T04:47:27;11.70;89.40
49413;DHT22;35493;50.276;9.372;2022-10-30T04:49:54;11.70;89.40
49413;DHT22;35493;50.276;9.372;2022-10-30T04:52:23;11.60;89.30
49413;DHT22;35493;50.276;9.372;2022-10-30T04:54:50;11.60;89.40
49413;DHT22;35493;50.276;9.372;2022-10-30T04:57:17;11.60;89.40
49413;DHT22;35493;50.276;9.372;2022-10-30T04:59:44;11.60;89.50
49413;DHT22;35493;50.276;9.372;2022-10-30T05:02:10;11.50;89.60
49413;DHT22;35493;50.276;9.372;2022-10-30T05:04:37;11.60;89.70
49413;DHT22;35493;50.276;9.372;2022-10-30T05:07:05;11.60;89.50
49413;DHT22;35493;50.276;9.372;2022-10-30T05:09:33;11.60;89.60
49413;DHT22;35493;50.276;9.372;2022-10-30T05:12:00;11.60;89.60
49413;DHT22;35493;50.276;9.372;2022-10-30T05:14:33;11.60;89.70
49413;DHT22;35493;50.276;9.372;2022-10-30T05:17:00;11.50;89.60
49413;DHT22;35493;50.276;9.372;2022-10-30T05:19:27;11.60;89.60
49413;DHT22;35493;50.276;9.372;2022-10-30T05:21:56;11.60;89.60
49413;DHT22;35493;50.276;9.372;2022-10-30T05:24:23;11.60;89.50
49413;DHT22;35493;50.276;9.372;2022-10-30T05:26:51;11.50;89.50
49413;DHT22;35493;50.276;9.372;2022-10-30T05:29:18;11.60;89.50
49413;DHT22;35493;50.276;9.372;2022-10-30T05:31:45;11.50;89.50
49413;DHT22;35493;50.276;9.372;2022-10-30T05:34:15;11.50;89.50
49413;DHT22;35493;50.276;9.372;2022-10-30T05:36:43;11.50;89.60
49413;DHT22;35493;50.276;9.372;2022-10-30T05:39:13;11.50;89.60
49413;DHT22;35493;50.276;9.372;2022-10-30T05:41:43;11.40;89.60
49413;DHT22;35493;50.276;9.372;2022-10-30T05:44:11;11.40;89.60
49413;DHT22;35493;50.276;9.372;2022-10-30T05:46:41;11.40;89.60
49413;DHT22;35493;50.276;9.372;2022-10-30T05:49:17;11.40;89.70
49413;DHT22;35493;50.276;9.372;2022-10-30T05:51:45;11.40;89.80
49413;DHT22;35493;50.276;9.372;2022-10-30T05:54:12;11.40;89.80
49413;DHT22;35493;50.276;9.372;2022-10-30T05:56:52;11.40;89.70
49413;DHT22;35493;50.276;9.372;2022-10-30T05:59:20;11.40;89.70
49413;DHT22;35493;50.276;9.372;2022-10-30T06:01:47;11.40;89.70
49413;DHT22;35493;50.276;9.372;2022-10-30T06:04:14;11.30;89.70
49413;DHT22;35493;50.276;9.372;2022-10-30T06:06:42;11.30;89.70
49413;DHT22;35493;50.276;9.372;2022-10-30T06:09:09;11.30;89.80
49413;DHT22;35493;50.276;9.372;2022-10-30T06:12:08;11.30;89.70
49413;DHT22;35493;50.276;9.372;2022-10-30T06:14:59;11.30;89.70
49413;DHT22;35493;50.276;9.372;2022-10-30T06:17:29;11.40;89.60
49413;DHT22;35493;50.276;9.372;2022-10-30T06:20:12;11.40;89.60
49413;DHT22;35493;50.276;9.372;2022-10-30T06:23:05;11.40;89.50
49413;DHT22;35493;50.276;9.372;2022-10-30T06:25:55;11.40;89.60
49413;DHT22;35493;50.276;9.372;2022-10-30T06:28:30;11.40;89.60
49413;DHT22;35493;50.276;9.372;2022-10-30T06:30:58;11.40;89.60
49413;DHT22;35493;50.276;9.372;2022-10-30T06:33:25;11.40;89.70
49413;DHT22;35493;50.276;9.372;2022-10-30T06:35:53;11.40;89.80
49413;DHT22;35493;50.276;9.372;2022-10-30T06:38:20;11.40;89.80
49413;DHT22;35493;50.276;9.372;2022-10-30T06:40:48;11.40;89.70
49413;DHT22;35493;50.276;9.372;2022-10-30T06:43:41;11.50;89.80
49413;DHT22;35493;50.276;9.372;2022-10-30T06:46:16;11.50;89.80
49413;DHT22;35493;50.276;9.372;2022-10-30T06:48:43;11.40;89.90
49413;DHT22;35493;50.276;9.372;2022-10-30T06:51:12;11.50;89.90
49413;DHT22;35493;50.276;9.372;2022-10-30T06:53:41;11.50;90.00
49413;DHT22;35493;50.276;9.372;2022-10-30T06:56:27;11.50;90.00
49413;DHT22;35493;50.276;9.372;2022-10-30T06:59:12;11.60;90.00
49413;DHT22;35493;50.276;9.372;2022-10-30T07:02:10;11.60;90.10
49413;DHT22;35493;50.276;9.372;2022-10-30T07:04:57;11.60;90.10
49413;DHT22;35493;50.276;9.372;2022-10-30T07:07:25;11.60;90.00
49413;DHT22;35493;50.276;9.372;2022-10-30T07:09:52;11.70;90.10
49413;DHT22;35493;50.276;9.372;2022-10-30T07:12:26;11.70;90.10
49413;DHT22;35493;50.276;9.372;2022-10-30T07:15:00;11.70;90.20
49413;DHT22;35493;50.276;9.372;2022-10-30T07:17:53;11.70;90.20
49413;DHT22;35493;50.276;9.372;2022-10-30T07:20:23;11.70;90.30
49413;DHT22;35493;50.276;9.372;2022-10-30T07:22:51;11.80;90.30
49413;DHT22;35493;50.276;9.372;2022-10-30T07:25:18;11.80;90.30
49413;DHT22;35493;50.276;9.372;2022-10-30T07:27:59;11.80;90.40
49413;DHT22;35493;50.276;9.372;2022-10-30T07:30:33;11.80;90.30
49413;DHT22;35493;50.276;9.372;2022-10-30T07:33:31;11.90;90.20
49413;DHT22;35493;50.276;9.372;2022-10-30T07:36:21;12.00;90.00
49413;DHT22;35493;50.276;9.372;2022-10-30T07:39:06;12.00;90.10
49413;DHT22;35493;50.276;9.372;2022-10-30T07:41:37;12.00;90.00
49413;DHT22;35493;50.276;9.372;2022-10-30T07:44:22;12.00;90.10
49413;DHT22;35493;50.276;9.372;2022-10-30T07:47:09;12.10;90.10
49413;DHT22;35493;50.276;9.372;2022-10-30T07:49:56;12.00;90.10
49413;DHT22;35493;50.276;9.372;2022-10-30T07:52:23;12.10;90.30
49413;DHT22;35493;50.276;9.372;2022-10-30T07:54:51;12.10;90.20
49413;DHT22;35493;50.276;9.372;2022-10-30T07:57:37;12.10;90.30
49413;DHT22;35493;50.276;9.372;2022-10-30T08:00:24;12.10;90.30
49413;DHT22;35493;50.276;9.372;2022-10-30T08:03:01;12.10;90.30
49413;DHT22;35493;50.276;9.372;2022-10-30T08:05:45;12.10;90.30
49413;DHT22;35493;50.276;9.372;2022-10-30T08:08:18;12.10;90.30
49413;DHT22;35493;50.276;9.372;2022-10-30T08:10:52;12.20;90.30
49413;DHT22;35493;50.276;9.372;2022-10-30T08:13:19;12.20;90.40
49413;DHT22;35493;50.276;9.372;2022-10-30T08:15:46;12.20;90.40
49413;DHT22;35493;50.276;9.372;2022-10-30T08:18:14;12.20;90.30
49413;DHT22;35493;50.276;9.372;2022-10-30T08:20:42;12.20;90.40
49413;DHT22;35493;50.276;9.372;2022-10-30T08:23:15;12.20;90.40
49413;DHT22;35493;50.276;9.372;2022-10-30T08:25:44;12.30;90.40
49413;DHT22;35493;50.276;9.372;2022-10-30T08:28:12;12.30;90.30
49413;DHT22;35493;50.276;9.372;2022-10-30T08:30:42;12.30;90.50
49413;DHT22;35493;50.276;9.372;2022-10-30T08:33:13;12.40;90.40
49413;DHT22;35493;50.276;9.372;2022-10-30T08:36:00;12.40;90.40
49413;DHT22;35493;50.276;9.372;2022-10-30T08:38:28;12.40;90.40
49413;DHT22;35493;50.276;9.372;2022-10-30T08:41:21;12.50;90.40
49413;DHT22;35493;50.276;9.372;2022-10-30T08:43:51;12.50;90.20
49413;DHT22;35493;50.276;9.372;2022-10-30T08:46:18;12.50;90.20
49413;DHT22;35493;50.276;9.372;2022-10-30T08:48:45;12.60;90.30
49413;DHT22;35493;50.276;9.372;2022-10-30T08:51:12;12.60;90.70
49413;DHT22;35493;50.276;9.372;2022-10-30T08:53:46;12.60;90.80
49413;DHT22;35493;50.276;9.372;2022-10-30T08:56:14;12.70;91.00
49413;DHT22;35493;50.276;9.372;2022-10-30T08:58:59;12.80;91.40
49413;DHT22;35493;50.276;9.372;2022-10-30T09:01:26;12.90;91.50
49413;DHT22;35493;50.276;9.372;2022-10-30T09:04:12;13.00;91.70
49413;DHT22;35493;50.276;9.372;2022-10-30T09:06:59;13.00;91.70
49413;DHT22;35493;50.276;9.372;2022-10-30T09:09:52;13.10;91.80
49413;DHT22;35493;50.276;9.372;2022-10-30T09:12:22;13.20;91.90
49413;DHT22;35493;50.276;9.372;2022-10-30T09:14:49;13.30;91.80
49413;DHT22;35493;50.276;9.372;2022-10-30T09:17:16;13.30;91.80
49413;DHT22;35493;50.276;9.372;2022-10-30T09:19:45;13.40;91.60
49413;DHT22;35493;50.276;9.372;2022-10-30T09:22:19;13.50;91.40
49413;DHT22;35493;50.276;9.372;2022-10-30T09:24:47;13.60;91.30
49413;DHT22;35493;50.276;9.372;2022-10-30T09:27:46;13.70;91.50
49413;DHT22;35493;50.276;9.372;2022-10-30T09:30:14;13.80;91.50
49413;DHT22;35493;50.276;9.372;2022-10-30T09:32:43;13.80;91.30
49413;DHT22;35493;50.276;9.372;2022-10-30T09:35:15;13.90;91.20
49413;DHT22;35493;50.276;9.372;2022-10-30T09:37:43;14.00;91.30
49413;DHT22;35493;50.276;9.372;2022-10-30T09:40:21;14.10;91.10
49413;DHT22;35493;50.276;9.372;2022-10-30T09:42:51;14.20;91.00
49413;DHT22;35493;50.276;9.372;2022-10-30T09:45:39;14.20;91.00
49413;DHT22;35493;50.276;9.372;2022-10-30T09:48:45;14.30;91.00
49413;DHT22;35493;50.276;9.372;2022-10-30T09:51:32;14.40;91.00
49413;DHT22;35493;50.276;9.372;2022-10-30T09:54:11;14.50;91.10
49413;DHT22;35493;50.276;9.372;2022-10-30T09:56:50;14.60;91.00
49413;DHT22;35493;50.276;9.372;2022-10-30T09:59:28;14.60;91.00
49413;DHT22;35493;50.276;9.372;2022-10-30T10:02:00;14.70;91.20
49413;DHT22;35493;50.276;9.372;2022-10-30T10:04:40;14.80;91.10
49413;DHT22;35493;50.276;9.372;2022-10-30T10:07:18;14.90;91.10
49413;DHT22;35493;50.276;9.372;2022-10-30T10:10:02;14.90;91.30
49413;DHT22;35493;50.276;9.372;2022-10-30T10:12:44;15.00;91.00
49413;DHT22;35493;50.276;9.372;2022-10-30T10:15:19;15.10;91.00
49413;DHT22;35493;50.276;9.372;2022-10-30T10:17:47;15.20;90.80
49413;DHT22;35493;50.276;9.372;2022-10-30T10:20:16;15.20;90.80
49413;DHT22;35493;50.276;9.372;2022-10-30T10:22:47;15.30;91.00
49413;DHT22;35493;50.276;9.372;2022-10-30T10:25:17;15.30;91.10
49413;DHT22;35493;50.276;9.372;2022-10-30T10:27:52;15.40;91.10
49413;DHT22;35493;50.276;9.372;2022-10-30T10:30:24;15.40;90.80
49413;DHT22;35493;50.276;9.372;2022-10-30T10:33:16;15.50;90.80
49413;DHT22;35493;50.276;9.372;2022-10-30T10:36:08;15.50;90.70
49413;DHT22;35493;50.276;9.372;2022-10-30T10:38:52;15.60;90.80
49413;DHT22;35493;50.276;9.372;2022-10-30T10:41:30;15.60;90.90
49413;DHT22;35493;50.276;9.372;2022-10-30T10:44:08;15.60;90.80
49413;DHT22;35493;50.276;9.372;2022-10-30T10:46:55;15.70;90.80
49413;DHT22;35493;50.276;9.372;2022-10-30T10:49:41;15.80;90.70
49413;DHT22;35493;50.276;9.372;2022-10-30T10:52:15;15.90;90.60
49413;DHT22;35493;50.276;9.372;2022-10-30T10:54:45;15.90;90.60
49413;DHT22;35493;50.276;9.372;2022-10-30T10:57:17;16.00;90.30
49413;DHT22;35493;50.276;9.372;2022-10-30T10:59:47;16.00;90.20
49413;DHT22;35493;50.276;9.372;2022-10-30T11:02:29;16.10;90.10
49413;DHT22;35493;50.276;9.372;2022-10-30T11:05:03;16.10;90.00
49413;DHT22;35493;50.276;9.372;2022-10-30T11:07:34;16.10;89.90
49413;DHT22;35493;50.276;9.372;2022-10-30T11:10:12;16.20;89.90
49413;DHT22;35493;50.276;9.372;2022-10-30T11:12:40;16.20;90.00
49413;DHT22;35493;50.276;9.372;2022-10-30T11:15:22;16.20;89.80
49413;DHT22;35493;50.276;9.372;2022-10-30T11:17:58;16.20;89.90
49413;DHT22;35493;50.276;9.372;2022-10-30T11:20:35;16.20;89.90
49413;DHT22;35493;50.276;9.372;2022-10-30T11:23:02;16.20;89.80
49413;DHT22;35493;50.276;9.372;2022-10-30T11:25:33;16.30;89.60
49413;DHT22;35493;50.276;9.372;2022-10-30T11:28:04;16.30;89.60
49413;DHT22;35493;50.276;9.372;2022-10-30T11:30:32;16.30;89.50
49413;DHT22;35493;50.276;9.372;2022-10-30T11:33:20;16.30;89.40
49413;DHT22;35493;50.276;9.372;2022-10-30T11:35:47;16.30;89.60
49413;DHT22;35493;50.276;9.372;2022-10-30T11:38:18;16.30;89.10
49413;DHT22;35493;50.276;9.372;2022-10-30T11:40:47;16.30;89.40
49413;DHT22;35493;50.276;9.372;2022-10-30T11:43:17;16.30;89.50
49413;DHT22;35493;50.276;9.372;2022-10-30T11:45:46;16.30;89.50
49413;DHT22;35493;50.276;9.372;2022-10-30T11:48:19;16.40;89.70
49413;DHT22;35493;50.276;9.372;2022-10-30T11:50:50;16.40;89.70
49413;DHT22;35493;50.276;9.372;2022-10-30T11:53:22;16.40;89.60
49413;DHT22;35493;50.276;9.372;2022-10-30T11:55:55;16.30;89.60
49413;DHT22;35493;50.276;9.372;2022-10-30T11:58:30;16.40;89.50
49413;DHT22;35493;50.276;9.372;2022-10-30T12:01:00;16.40;89.70
49413;DHT22;35493;50.276;9.372;2022-10-30T12:03:34;16.40;89.40
49413;DHT22;35493;50.276;9.372;2022-10-30T12:06:09;16.40;89.40
49413;DHT22;35493;50.276;9.372;2022-10-30T12:08:37;16.40;89.10
49413;DHT22;35493;50.276;9.372;2022-10-30T12:11:05;16.40;89.20
49413;DHT22;35493;50.276;9.372;2022-10-30T12:13:37;16.40;89.00
49413;DHT22;35493;50.276;9.372;2022-10-30T12:16:14;16.40;89.00
49413;DHT22;35493;50.276;9.372;2022-10-30T12:18:58;16.40;89.00
49413;DHT22;35493;50.276;9.372;2022-10-30T12:21:27;16.40;88.90
49413;DHT22;35493;50.276;9.372;2022-10-30T12:23:56;16.40;88.90
49413;DHT22;35493;50.276;9.372;2022-10-30T12:26:27;16.40;88.80
49413;DHT22;35493;50.276;9.372;2022-10-30T12:28:58;16.40;88.70
49413;DHT22;35493;50.276;9.372;2022-10-30T12:31:33;16.50;88.70
49413;DHT22;35493;50.276;9.372;2022-10-30T12:34:14;16.40;88.60
49413;DHT22;35493;50.276;9.372;2022-10-30T12:36:47;16.40;88.50
49413;DHT22;35493;50.276;9.372;2022-10-30T12:39:17;16.40;88.50
49413;DHT22;35493;50.276;9.372;2022-10-30T12:41:55;16.40;88.50
49413;DHT22;35493;50.276;9.372;2022-10-30T12:44:27;16.50;88.60
49413;DHT22;35493;50.276;9.372;2022-10-30T12:47:00;16.40;88.60
49413;DHT22;35493;50.276;9.372;2022-10-30T12:49:38;16.50;88.70
49413;DHT22;35493;50.276;9.372;2022-10-30T12:52:12;16.50;88.70
49413;DHT22;35493;50.276;9.372;2022-10-30T12:54:44;16.50;88.50
49413;DHT22;35493;50.276;9.372;2022-10-30T12:57:16;16.50;88.30
49413;DHT22;35493;50.276;9.372;2022-10-30T12:59:53;16.50;88.30
49413;DHT22;35493;50.276;9.372;2022-10-30T13:02:27;16.40;88.20
49413;DHT22;35493;50.276;9.372;2022-10-30T13:05:03;16.50;88.20
49413;DHT22;35493;50.276;9.372;2022-10-30T13:07:36;16.40;88.00
49413;DHT22;35493;50.276;9.372;2022-10-30T13:10:18;16.40;87.70
49413;DHT22;35493;50.276;9.372;2022-10-30T13:12:47;16.50;87.90
49413;DHT22;35493;50.276;9.372;2022-10-30T13:15:20;16.40;87.30
49413;DHT22;35493;50.276;9.372;2022-10-30T13:17:50;16.50;87.40
49413;DHT22;35493;50.276;9.372;2022-10-30T13:20:19;16.50;87.30
49413;DHT22;35493;50.276;9.372;2022-10-30T13:22:50;16.40;87.00
49413;DHT22;35493;50.276;9.372;2022-10-30T13:25:23;16.40;87.10
49413;DHT22;35493;50.276;9.372;2022-10-30T13:27:56;16.50;87.10
49413;DHT22;35493;50.276;9.372;2022-10-30T13:30:32;16.50;87.00
49413;DHT22;35493;50.276;9.372;2022-10-30T13:33:07;16.50;86.70
49413;DHT22;35493;50.276;9.372;2022-10-30T13:35:42;16.50;86.60
49413;DHT22;35493;50.276;9.372;2022-10-30T13:38:28;16.50;86.50
49413;DHT22;35493;50.276;9.372;2022-10-30T13:41:01;16.50;86.70
49413;DHT22;35493;50.276;9.372;2022-10-30T13:43:36;16.50;86.90
49413;DHT22;35493;50.276;9.372;2022-10-30T13:46:52;16.50;86.30
49413;DHT22;35493;50.276;9.372;2022-10-30T13:49:39;16.50;86.50
49413;DHT22;35493;50.276;9.372;2022-10-30T13:52:13;16.50;86.40
49413;DHT22;35493;50.276;9.372;2022-10-30T13:54:43;16.60;86.10
49413;DHT22;35493;50.276;9.372;2022-10-30T13:57:18;16.60;85.80
49413;DHT22;35493;50.276;9.372;2022-10-30T13:59:58;16.60;85.70
49413;DHT22;35493;50.276;9.372;2022-10-30T14:05:35;16.70;85.10
49413;DHT22;35493;50.276;9.372;2022-10-30T14:08:17;16.70;85.40
49413;DHT22;35493;50.276;9.372;2022-10-30T14:10:47;16.70;85.10
49413;DHT22;35493;50.276;9.372;2022-10-30T14:13:22;16.70;85.30
49413;DHT22;35493;50.276;9.372;2022-10-30T14:15:56;16.70;84.50
49413;DHT22;35493;50.276;9.372;2022-10-30T14:21:38;16.70;84.90
49413;DHT22;35493;50.276;9.372;2022-10-30T14:24:15;16.80;84.80
49413;DHT22;35493;50.276;9.372;2022-10-30T14:26:50;16.70;84.80
49413;DHT22;35493;50.276;9.372;2022-10-30T14:29:43;16.70;84.40
49413;DHT22;35493;50.276;9.372;2022-10-30T14:32:34;16.70;84.30
49413;DHT22;35493;50.276;9.372;2022-10-30T14:35:01;16.70;84.70
49413;DHT22;35493;50.276;9.372;2022-10-30T14:37:53;16.70;84.60
49413;DHT22;35493;50.276;9.372;2022-10-30T14:40:36;16.70;84.70
49413;DHT22;35493;50.276;9.372;2022-10-30T14:43:08;16.70;84.70
49413;DHT22;35493;50.276;9.372;2022-10-30T14:45:42;16.70;84.20
49413;DHT22;35493;50.276;9.372;2022-10-30T14:48:17;16.70;84.50
49413;DHT22;35493;50.276;9.372;2022-10-30T14:50:55;16.70;84.60
49413;DHT22;35493;50.276;9.372;2022-10-30T14:53:38;16.70;84.60
49413;DHT22;35493;50.276;9.372;2022-10-30T14:56:19;16.60;84.40
49413;DHT22;35493;50.276;9.372;2022-10-30T14:59:20;16.70;84.60
49413;DHT22;35493;50.276;9.372;2022-10-30T15:01:56;16.60;84.70
49413;DHT22;35493;50.276;9.372;2022-10-30T15:04:29;16.60;84.90
49413;DHT22;35493;50.276;9.372;2022-10-30T15:07:06;16.60;85.10
49413;DHT22;35493;50.276;9.372;2022-10-30T15:09:47;16.60;85.30
49413;DHT22;35493;50.276;9.372;2022-10-30T15:12:53;16.60;85.50
49413;DHT22;35493;50.276;9.372;2022-10-30T15:15:24;16.60;85.60
49413;DHT22;35493;50.276;9.372;2022-10-30T15:17:54;16.60;85.80
49413;DHT22;35493;50.276;9.372;2022-10-30T15:20:21;16.60;86.00
49413;DHT22;35493;50.276;9.372;2022-10-30T15:22:52;16.50;86.10
49413;DHT22;35493;50.276;9.372;2022-10-30T15:25:21;16.50;86.20
49413;DHT22;35493;50.276;9.372;2022-10-30T15:27:52;16.50;86.30
49413;DHT22;35493;50.276;9.372;2022-10-30T15:30:22;16.50;86.50
49413;DHT22;35493;50.276;9.372;2022-10-30T15:32:50;16.40;86.60
49413;DHT22;35493;50.276;9.372;2022-10-30T15:35:18;16.50;86.80
49413;DHT22;35493;50.276;9.372;2022-10-30T15:38:04;16.40;86.80
49413;DHT22;35493;50.276;9.372;2022-10-30T15:40:32;16.40;86.90
49413;DHT22;35493;50.276;9.372;2022-10-30T15:43:02;16.40;87.10
49413;DHT22;35493;50.276;9.372;2022-10-30T15:45:33;16.30;87.10
49413;DHT22;35493;50.276;9.372;2022-10-30T15:48:06;16.30;87.20
49413;DHT22;35493;50.276;9.372;2022-10-30T15:50:34;16.20;87.20
49413;DHT22;35493;50.276;9.372;2022-10-30T15:53:04;16.20;87.50
49413;DHT22;35493;50.276;9.372;2022-10-30T15:55:31;16.10;87.40
49413;DHT22;35493;50.276;9.372;2022-10-30T15:58:02;16.10;87.60
49413;DHT22;35493;50.276;9.372;2022-10-30T16:00:32;16.10;87.70
49413;DHT22;35493;50.276;9.372;2022-10-30T16:03:00;16.00;88.10
49413;DHT22;35493;50.276;9.372;2022-10-30T16:05:28;16.00;87.70
49413;DHT22;35493;50.276;9.372;2022-10-30T16:07:56;15.90;87.80
49413;DHT22;35493;50.276;9.372;2022-10-30T16:10:25;15.90;87.90
49413;DHT22;35493;50.276;9.372;2022-10-30T16:12:56;15.90;88.00
49413;DHT22;35493;50.276;9.372;2022-10-30T16:15:27;15.80;88.00